Time;durP1;ratioP1;P1;durP2;ratioP2;P2;SDS_P1;SDS_P2;PMS_P1;PMS_P2;Temp;Humidity;BMP_temperature;BMP_pressure;BME280_temperature;BME280_humidity;BME280_pressure;Samples;Min_cycle;Max_cycle;Signal;HPM_P1;HPM_P2
2021/05/02 08:14:09;;;;;;;22.38;13.93;;;10.40;95.20;;;;;;6099600;23;20259;-90
2021/05/02 08:16:54;;;;;;;20.63;13.70;;;10.30;95.60;;;;;;6135112;23;20022;-92
2021/05/02 08:26:23;;;;;;;24.48;16.50;;;10.30;95.60;;;;;;6135766;23;20013;-92
2021/05/02 08:33:01;;;;;;;;;;;;;;;;;;;;;
2021/05/02 08:46:15;;;;;;;28.88;19.05;;;9.90;96.30;;;;;;5993845;24;20019;-92
2021/05/02 09:06:30;;;;;;;;;;;;;;;;;;;;;
2021/05/02 10:41:20;;;;;;;;;;;;;;;;;;;;;
2021/05/02 11:25:36;;;;;;;;;;;;;;;;;;;;;
2021/05/02 14:22:27;;;;;;;9.15;6.00;;;9.90;92.10;;;;;;5877630;24;20033;-93
2021/05/02 14:43:54;;;;;;;;;;;;;;;;;;;;;
2021/05/02 15:06:29;;;;;;;6.07;4.72;;;10.50;92.10;;;;;;6032776;23;20039;-93
2021/05/02 15:11:51;;;;;;;6.75;5.13;;;10.70;91.20;;;;;;6111478;23;20024;-90
2021/05/02 15:14:30;;;;;;;6.43;5.40;;;10.60;91.20;;;;;;6107281;23;20010;-91
2021/05/02 15:17:20;;;;;;;5.55;3.90;;;10.50;91.30;;;;;;6107785;23;20005;-92
2021/05/02 15:20:06;;;;;;;6.43;4.75;;;10.40;91.90;;;;;;6106977;23;20006;-90
2021/05/02 15:23:15;;;;;;;5.32;4.22;;;10.30;92.00;;;;;;6131820;23;20017;-90
2021/05/02 15:40:10;;;;;;;4.07;3.13;;;10.40;91.70;;;;;;6101500;23;20030;-92
2021/05/02 15:43:38;;;;;;;3.15;2.50;;;10.50;91.60;;;;;;6076467;23;20012;-92
2021/05/02 17:11:23;;;;;;;8.15;3.15;;;9.70;91.70;;;;;;6111539;23;20005;-91
2021/05/02 17:33:39;;;;;;;;;;;;;;;;;;;;;
2021/05/02 18:10:43;;;;;;;;;;;;;;;;;;;;;
2021/05/02 18:13:30;;;;;;;3.13;1.60;;;8.40;93.50;;;;;;5771532;24;20373;-90
2021/05/02 18:16:24;;;;;;;3.22;2.78;;;8.40;93.50;;;;;;5770164;24;20348;-90
2021/05/02 18:19:29;;;;;;;3.90;2.20;;;8.40;93.20;;;;;;5881595;24;20029;-90
2021/05/02 18:22:08;;;;;;;3.10;2.53;;;8.40;93.10;;;;;;5958021;23;20035;-91
2021/05/02 18:24:42;;;;;;;2.05;1.85;;;8.40;93.20;;;;;;6126503;23;20014;-90
2021/05/02 18:27:50;;;;;;;2.45;1.70;;;8.40;93.30;;;;;;6103736;23;20030;-91
2021/05/02 18:30:47;;;;;;;;;;;;;;;;;;;;;
2021/05/02 18:33:35;;;;;;;;;;;;;;;;;;;;;
2021/05/02 18:36:34;;;;;;;7.35;2.63;;;8.50;93.10;;;;;;6067242;23;20383;-91
2021/05/02 18:39:17;;;;;;;2.80;2.38;;;8.50;93.00;;;;;;6056730;23;20027;-91
2021/05/02 18:42:25;;;;;;;2.75;1.90;;;8.50;93.00;;;;;;6102592;23;20006;-91
2021/05/02 18:44:55;;;;;;;3.75;2.03;;;8.50;93.00;;;;;;6107836;23;20017;-91
2021/05/02 18:47:41;;;;;;;2.88;2.10;;;8.50;93.20;;;;;;6107476;23;20006;-91
2021/05/02 18:50:11;;;;;;;2.08;1.88;;;8.50;93.10;;;;;;6076894;23;20089;-90
2021/05/02 18:53:02;;;;;;;2.17;1.98;;;8.50;93.10;;;;;;6078188;23;20091;-90
2021/05/02 18:55:32;;;;;;;2.20;1.70;;;8.50;92.90;;;;;;6078933;23;19998;-91
2021/05/02 18:58:44;;;;;;;52.88;25.80;;;8.60;92.70;;;;;;6077546;23;20007;-92
2021/05/02 19:01:10;;;;;;;18.67;11.10;;;8.60;92.80;;;;;;6078397;23;20006;-90
2021/05/02 19:06:47;;;;;;;2.42;2.13;;;8.60;92.50;;;;;;6073226;23;20250;-89
2021/05/02 19:09:26;;;;;;;2.88;1.88;;;8.60;92.50;;;;;;6078576;23;20003;-91
2021/05/02 19:12:05;;;;;;;3.35;1.63;;;8.70;92.50;;;;;;6078559;23;20007;-91
2021/05/02 19:14:39;;;;;;;2.70;2.15;;;8.70;92.20;;;;;;6079422;23;20017;-91
2021/05/02 19:17:19;;;;;;;3.53;1.73;;;8.70;91.90;;;;;;6077723;23;20010;-92
2021/05/02 19:20:16;;;;;;;5.38;1.90;;;8.70;92.10;;;;;;6079486;23;20089;-91
2021/05/02 19:23:01;;;;;;;1.92;1.50;;;8.80;92.10;;;;;;6078997;23;20085;-91
2021/05/02 19:25:51;;;;;;;2.97;2.10;;;8.70;92.00;;;;;;6077172;23;20041;-91
2021/05/02 19:28:24;;;;;;;2.42;1.80;;;8.70;92.00;;;;;;6102087;23;20042;-90
2021/05/02 19:31:07;;;;;;;3.97;1.85;;;8.70;91.80;;;;;;6078026;23;20013;-91
2021/05/02 19:34:30;;;;;;;;;;;;;;;;;;;;;
2021/05/02 19:37:52;;;;;;;2.17;1.63;;;8.70;91.90;;;;;;6102356;23;20025;-90
2021/05/02 19:41:09;;;;;;;2.72;1.98;;;8.70;91.40;;;;;;6078600;23;20002;-92
2021/05/02 19:43:50;;;;;;;3.75;1.45;;;8.70;91.30;;;;;;6078188;23;20011;-90
2021/05/02 19:46:32;;;;;;;2.35;2.05;;;8.60;91.60;;;;;;6078235;23;20021;-91
2021/05/02 19:52:54;;;;;;;2.13;1.52;;;8.60;91.70;;;;;;6092691;23;20041;-92
2021/05/02 19:55:37;;;;;;;4.30;2.28;;;8.60;91.70;;;;;;6064767;23;20045;-91
2021/05/02 19:58:15;;;;;;;3.90;1.55;;;8.60;91.20;;;;;;6077991;23;20010;-91
2021/05/02 20:04:46;;;;;;;3.15;2.80;;;8.50;91.50;;;;;;6044143;23;20018;-92
2021/05/02 20:13:20;;;;;;;4.15;1.50;;;8.40;91.00;;;;;;6102866;23;20113;-94
2021/05/02 20:26:01;;;;;;;4.55;2.40;;;8.40;89.10;;;;;;5979502;23;20248;-93
2021/05/02 20:28:38;;;;;;;2.92;1.80;;;8.30;89.20;;;;;;6077658;23;20013;-92
2021/05/02 20:32:01;;;;;;;7.38;2.53;;;8.40;89.40;;;;;;6078272;23;20062;-93
2021/05/02 20:34:52;;;;;;;4.47;3.08;;;8.40;89.20;;;;;;6077105;23;20013;-92
2021/05/02 20:37:27;;;;;;;6.65;2.30;;;8.30;89.10;;;;;;6080581;23;20025;-92
2021/05/02 20:40:05;;;;;;;4.03;1.90;;;8.30;89.90;;;;;;6083265;23;20010;-93
2021/05/02 20:42:43;;;;;;;3.47;2.03;;;8.30;88.80;;;;;;6077692;23;20010;-92
2021/05/02 20:45:23;;;;;;;3.28;1.80;;;8.30;89.20;;;;;;6077471;23;20010;-92
2021/05/02 20:47:51;;;;;;;3.38;1.50;;;8.30;89.10;;;;;;6077870;23;20123;-91
2021/05/02 20:50:28;;;;;;;4.75;1.63;;;8.20;89.00;;;;;;6079178;23;20053;-91
2021/05/02 20:52:59;;;;;;;1.85;1.50;;;8.20;88.80;;;;;;6106431;23;20029;-91
2021/05/02 20:55:26;;;;;;;3.95;2.00;;;8.10;89.00;;;;;;6109433;23;20029;-92
2021/05/02 20:57:53;;;;;;;4.72;1.92;;;8.20;89.20;;;;;;6107077;23;20001;-93
2021/05/02 21:00:22;;;;;;;2.88;1.80;;;8.10;88.50;;;;;;6106669;23;19998;-91
2021/05/02 21:02:48;;;;;;;1.98;1.27;;;8.10;88.90;;;;;;6106650;23;20006;-91
2021/05/02 21:05:14;;;;;;;1.65;1.48;;;8.10;88.90;;;;;;6106232;23;19998;-91
2021/05/02 21:07:52;;;;;;;6.80;2.03;;;8.20;89.00;;;;;;6106702;23;20558;-91
2021/05/02 21:10:18;;;;;;;4.45;1.95;;;8.10;88.80;;;;;;6106449;23;20013;-90
2021/05/02 21:12:47;;;;;;;4.50;1.95;;;8.10;89.50;;;;;;6106285;23;20002;-91
2021/05/02 21:15:22;;;;;;;2.83;1.77;;;8.10;89.50;;;;;;6106626;23;20220;-91
2021/05/02 21:17:48;;;;;;;3.17;1.80;;;8.10;89.60;;;;;;6095907;23;20090;-88
2021/05/02 21:20:14;;;;;;;3.47;1.92;;;8.10;89.90;;;;;;6131060;23;20017;-91
2021/05/02 21:22:40;;;;;;;4.07;2.05;;;8.10;89.90;;;;;;6132387;23;20246;-91
2021/05/02 21:25:07;;;;;;;2.60;1.92;;;8.10;89.80;;;;;;6108298;23;20006;-91
2021/05/02 21:27:35;;;;;;;4.15;1.75;;;8.10;90.00;;;;;;6132364;23;20006;-92
2021/05/02 21:30:11;;;;;;;3.13;1.65;;;8.10;90.00;;;;;;6133120;23;20346;-92
2021/05/02 21:32:37;;;;;;;5.53;2.20;;;8.10;89.90;;;;;;6116870;23;20080;-91
2021/05/02 21:35:05;;;;;;;1.88;1.65;;;8.10;90.20;;;;;;6132616;23;20054;-91
2021/05/02 21:37:41;;;;;;;2.20;1.90;;;8.10;90.00;;;;;;6133128;23;20020;-92
2021/05/02 21:40:15;;;;;;;9.80;2.15;;;8.00;90.20;;;;;;6133041;23;20009;-91
2021/05/02 21:42:49;;;;;;;4.53;1.92;;;8.00;90.20;;;;;;6132838;23;20009;-92
2021/05/02 21:45:25;;;;;;;;;;;;;;;;;;;;;
2021/05/02 21:48:04;;;;;;;5.00;2.80;;;8.00;90.20;;;;;;6133628;23;20040;-92
2021/05/02 21:50:40;;;;;;;5.05;1.95;;;8.00;90.20;;;;;;6132376;23;20013;-92
2021/05/02 21:53:09;;;;;;;2.03;1.75;;;8.10;90.40;;;;;;6132619;23;20002;-91
2021/05/02 21:55:38;;;;;;;2.60;2.10;;;8.00;90.60;;;;;;6132236;23;20370;-91
2021/05/02 21:58:09;;;;;;;3.42;1.90;;;7.90;90.50;;;;;;6132317;23;20097;-91
2021/05/02 22:00:56;;;;;;;1.90;1.50;;;7.90;90.60;;;;;;6094326;23;20065;-91
2021/05/02 22:03:23;;;;;;;5.90;2.13;;;7.80;90.60;;;;;;6131001;23;20012;-91
2021/05/02 22:05:54;;;;;;;2.53;1.95;;;7.80;90.60;;;;;;6132197;23;20025;-92
2021/05/02 22:08:22;;;;;;;4.05;2.10;;;7.80;90.60;;;;;;6132401;23;20062;-90
2021/05/02 22:10:49;;;;;;;2.58;2.28;;;7.80;90.60;;;;;;6132081;23;20006;-90
2021/05/02 22:13:22;;;;;;;7.00;2.83;;;7.80;90.60;;;;;;6132582;23;20276;-91
2021/05/02 22:15:59;;;;;;;2.63;1.98;;;7.80;90.70;;;;;;6132884;23;20010;-90
2021/05/02 22:18:26;;;;;;;3.65;2.20;;;7.80;90.80;;;;;;6132538;23;20005;-90
2021/05/02 22:20:57;;;;;;;3.75;2.30;;;7.70;90.80;;;;;;6132208;23;20061;-91
2021/05/02 22:23:23;;;;;;;3.55;1.98;;;7.70;91.20;;;;;;6132030;23;20005;-91
2021/05/02 22:25:49;;;;;;;3.13;2.25;;;7.70;91.20;;;;;;6131373;23;20010;-91
2021/05/02 22:28:19;;;;;;;3.50;2.38;;;7.70;91.40;;;;;;6131829;23;20001;-91
2021/05/02 22:30:55;;;;;;;2.53;2.33;;;7.60;91.40;;;;;;6132474;23;19998;-91
2021/05/02 22:33:23;;;;;;;3.88;2.25;;;7.60;91.50;;;;;;6130380;23;20005;-91
2021/05/02 22:36:03;;;;;;;3.65;2.50;;;7.60;91.60;;;;;;6107945;23;20077;-91
2021/05/02 22:38:58;;;;;;;4.13;2.45;;;7.60;91.70;;;;;;6142902;23;20025;-92
2021/05/02 22:41:32;;;;;;;2.95;2.65;;;7.60;91.80;;;;;;6131830;23;20020;-91
2021/05/02 22:44:05;;;;;;;4.90;2.85;;;7.60;91.90;;;;;;6132277;23;20002;-91
2021/05/02 22:46:37;;;;;;;4.30;2.95;;;7.60;91.90;;;;;;6131900;23;20014;-91
2021/05/02 22:49:07;;;;;;;5.65;3.00;;;7.60;92.10;;;;;;6132395;23;19998;-92
2021/05/02 22:51:39;;;;;;;5.32;2.70;;;7.60;92.20;;;;;;6107837;23;20081;-91
2021/05/02 22:54:12;;;;;;;3.50;2.67;;;7.60;92.20;;;;;;6132319;23;20006;-92
2021/05/02 22:56:43;;;;;;;4.30;3.03;;;7.60;92.20;;;;;;6132299;23;20013;-91
2021/05/02 22:59:17;;;;;;;6.88;2.70;;;7.60;92.20;;;;;;6130833;23;20010;-91
2021/05/02 23:01:48;;;;;;;3.03;2.45;;;7.60;92.20;;;;;;6132002;23;20074;-91
2021/05/02 23:04:18;;;;;;;3.38;2.58;;;7.50;92.20;;;;;;6132210;23;20005;-90
2021/05/02 23:06:52;;;;;;;4.10;2.53;;;7.50;92.30;;;;;;6131862;23;20093;-91
2021/05/02 23:09:17;;;;;;;5.40;3.05;;;7.40;92.40;;;;;;6131705;23;20002;-91
2021/05/02 23:11:55;;;;;;;3.70;2.60;;;7.30;92.50;;;;;;6131274;23;20002;-92
2021/05/02 23:14:20;;;;;;;4.43;2.40;;;7.30;92.70;;;;;;6130916;23;20006;-91
2021/05/02 23:16:46;;;;;;;4.22;2.53;;;7.30;92.60;;;;;;6131912;23;20069;-91
2021/05/02 23:19:19;;;;;;;4.95;2.97;;;7.20;92.80;;;;;;6131476;23;20344;-91
2021/05/02 23:21:51;;;;;;;4.18;2.28;;;7.10;92.90;;;;;;6095523;23;20005;-92
2021/05/02 23:24:17;;;;;;;3.70;2.38;;;7.10;92.90;;;;;;6131601;23;20010;-91
2021/05/02 23:26:55;;;;;;;;;;;;;;;;;;;;;
2021/05/02 23:29:22;;;;;;;6.32;2.35;;;7.00;92.70;;;;;;6132831;23;20025;-91
2021/05/02 23:31:58;;;;;;;3.72;2.63;;;7.00;92.80;;;;;;6131498;23;20006;-91
2021/05/02 23:34:24;;;;;;;4.90;2.60;;;7.00;92.70;;;;;;6128356;23;20006;-90
2021/05/02 23:36:50;;;;;;;4.18;3.08;;;7.00;92.60;;;;;;6131425;23;20020;-91
2021/05/02 23:39:24;;;;;;;5.97;2.72;;;7.00;92.30;;;;;;6131772;23;20033;-92
2021/05/02 23:41:50;;;;;;;3.38;2.47;;;7.00;92.20;;;;;;6132053;23;20011;-91
2021/05/02 23:44:17;;;;;;;3.65;2.38;;;7.00;92.50;;;;;;6130978;23;20016;-91
2021/05/02 23:46:45;;;;;;;2.85;2.05;;;7.00;92.30;;;;;;6131780;23;20009;-92
2021/05/02 23:49:14;;;;;;;7.38;3.00;;;7.10;92.00;;;;;;6107577;23;20454;-91
2021/05/02 23:51:42;;;;;;;2.95;2.15;;;7.10;92.00;;;;;;6131204;23;20005;-91
2021/05/02 23:54:44;;;;;;;5.95;2.42;;;7.10;91.70;;;;;;6131794;23;20002;-92
2021/05/02 23:57:13;;;;;;;4.90;2.58;;;7.20;91.90;;;;;;6100868;23;20368;-91
2021/05/02 23:59:41;;;;;;;3.22;2.38;;;7.20;91.60;;;;;;6131763;23;20016;-91
